Time;durP1;ratioP1;P1;durP2;ratioP2;P2;SDS_P1;SDS_P2;PMS_P1;PMS_P2;Temp;Humidity;BMP_temperature;BMP_pressure;BME280_temperature;BME280_humidity;BME280_pressure;Samples;Min_cycle;Max_cycle;Signal;HPM_P1;HPM_P2
2020/12/26 00:01:00;;;;;;;;;;;8.80;69.70;;;;;;2598002;22;19923;-70
2020/12/26 00:02:03;;;;;;;;;;;8.60;69.70;;;;;;2596041;22;20245;-70
2020/12/26 00:03:04;;;;;;;;;;;8.70;71.00;;;;;;2596223;22;19934;-72
2020/12/26 00:04:06;;;;;;;;;;;8.70;70.20;;;;;;2596228;22;19919;-72
2020/12/26 00:05:08;;;;;;;;;;;8.60;70.20;;;;;;2596318;22;19919;-71
2020/12/26 00:06:12;;;;;;;;;;;8.60;71.70;;;;;;2596054;22;20356;-72
2020/12/26 00:07:14;;;;;;;;;;;8.50;71.10;;;;;;2596294;22;19920;-72
2020/12/26 00:08:15;;;;;;;;;;;8.60;70.90;;;;;;2596303;22;20225;-73
2020/12/26 00:09:16;;;;;;;;;;;8.50;70.60;;;;;;2596733;22;19938;-72
2020/12/26 00:10:18;;;;;;;;;;;8.50;72.60;;;;;;2596350;22;20340;-72
2020/12/26 00:11:20;;;;;;;;;;;8.60;72.10;;;;;;2596564;22;19926;-72
2020/12/26 00:12:21;;;;;;;;;;;8.50;70.80;;;;;;2596660;22;19926;-72
2020/12/26 00:13:23;;;;;;;;;;;8.60;73.90;;;;;;2596282;22;20317;-72
2020/12/26 00:14:30;;;;;;;;;;;8.50;70.80;;;;;;2596467;22;19966;-73
2020/12/26 00:15:32;;;;;;;;;;;8.40;71.60;;;;;;2596387;22;19923;-72
2020/12/26 00:16:33;;;;;;;;;;;8.40;71.60;;;;;;2595914;22;19927;-72
2020/12/26 00:17:46;;;;;;;;;;;8.40;71.30;;;;;;2596020;22;20287;-71
2020/12/26 00:18:48;;;;;;;;;;;8.40;71.20;;;;;;2596340;22;20189;-72
2020/12/26 00:19:49;;;;;;;;;;;8.40;72.30;;;;;;2596360;22;19920;-72
2020/12/26 00:20:51;;;;;;;;;;;8.40;72.00;;;;;;2596410;22;20324;-72
2020/12/26 00:21:52;;;;;;;;;;;8.30;70.90;;;;;;2596226;22;19919;-72
2020/12/26 00:22:53;;;;;;;;;;;8.20;71.50;;;;;;2596442;22;20082;-72
2020/12/26 00:23:55;;;;;;;;;;;8.10;71.40;;;;;;2596510;22;19927;-73
2020/12/26 00:24:56;;;;;;;;;;;8.10;72.50;;;;;;2596522;22;20244;-72
2020/12/26 00:25:58;;;;;;;;;;;8.10;72.30;;;;;;2582950;23;19924;-72
2020/12/26 00:26:59;;;;;;;;;;;8.00;74.00;;;;;;2583129;22;19920;-73
2020/12/26 00:28:00;;;;;;;;;;;8.10;73.90;;;;;;2596513;22;19924;-71
2020/12/26 00:29:02;;;;;;;;;;;8.20;73.30;;;;;;2596372;22;19919;-72
2020/12/26 00:30:04;;;;;;;;;;;8.20;74.30;;;;;;2596956;22;19919;-74
2020/12/26 00:31:05;;;;;;;;;;;8.20;73.50;;;;;;2596210;22;19919;-72
2020/12/26 00:32:07;;;;;;;;;;;8.20;73.50;;;;;;2596696;22;19919;-72
2020/12/26 00:33:09;;;;;;;;;;;8.30;72.80;;;;;;2596889;22;20360;-72
2020/12/26 00:34:11;;;;;;;;;;;8.20;72.50;;;;;;2596622;22;19938;-71
2020/12/26 00:35:12;;;;;;;;;;;8.30;72.80;;;;;;2596929;22;19926;-71
2020/12/26 00:36:14;;;;;;;;;;;8.40;74.90;;;;;;2596885;22;19919;-70
2020/12/26 00:37:16;;;;;;;;;;;8.40;74.10;;;;;;2596354;22;19926;-70
2020/12/26 00:38:17;;;;;;;;;;;8.50;73.20;;;;;;2596612;22;19923;-70
2020/12/26 00:39:19;;;;;;;;;;;8.40;71.90;;;;;;2596506;22;20369;-72
2020/12/26 00:40:24;;;;;;;;;;;8.40;72.10;;;;;;2596509;22;20281;-71
2020/12/26 00:41:25;;;;;;;;;;;8.30;71.20;;;;;;2596588;22;19926;-71
2020/12/26 00:42:26;;;;;;;;;;;8.30;71.70;;;;;;2595963;22;20494;-71
2020/12/26 00:43:28;;;;;;;;;;;8.30;73.70;;;;;;2595996;22;20356;-71
2020/12/26 00:44:29;;;;;;;;;;;8.30;72.10;;;;;;2596218;22;19919;-71
2020/12/26 00:45:31;;;;;;;;;;;8.30;74.00;;;;;;2595994;22;19919;-73
2020/12/26 00:46:32;;;;;;;;;;;8.40;72.10;;;;;;2582556;23;19920;-71
2020/12/26 00:47:33;;;;;;;;;;;8.30;72.70;;;;;;2582878;22;19920;-71
2020/12/26 00:48:36;;;;;;;;;;;8.30;72.10;;;;;;2595864;22;20241;-71
2020/12/26 00:49:37;;;;;;;;;;;8.30;73.00;;;;;;2595850;22;19919;-72
2020/12/26 00:50:39;;;;;;;;;;;8.20;71.90;;;;;;2596117;22;19919;-71
2020/12/26 00:51:40;;;;;;;;;;;8.10;72.50;;;;;;2595971;22;19923;-70
2020/12/26 00:52:42;;;;;;;;;;;8.20;73.30;;;;;;2582809;23;19920;-70
2020/12/26 00:53:43;;;;;;;;;;;8.20;74.10;;;;;;2582981;22;19940;-71
2020/12/26 00:54:44;;;;;;;;;;;8.30;74.60;;;;;;2595807;22;20329;-71
2020/12/26 00:55:47;;;;;;;;;;;8.30;72.40;;;;;;2582587;23;20007;-71
2020/12/26 00:56:48;;;;;;;;;;;8.30;73.80;;;;;;2583143;22;19924;-72
2020/12/26 00:57:50;;;;;;;;;;;8.30;72.30;;;;;;2595999;22;20379;-71
2020/12/26 00:58:51;;;;;;;;;;;8.30;72.10;;;;;;2596799;22;19919;-71
2020/12/26 00:59:52;;;;;;;;;;;8.30;72.70;;;;;;2597271;22;19919;-72
2020/12/26 01:00:54;;;;;;;;;;;8.30;73.30;;;;;;2597284;22;19927;-72
2020/12/26 01:01:55;;;;;;;;;;;8.40;74.20;;;;;;2596668;22;19926;-71
2020/12/26 01:02:57;;;;;;;;;;;8.50;73.50;;;;;;2597182;22;19926;-71
2020/12/26 01:03:59;;;;;;;;;;;8.50;73.40;;;;;;2597005;22;19927;-72
2020/12/26 01:05:00;;;;;;;;;;;8.50;73.20;;;;;;2596932;22;19923;-71
2020/12/26 01:06:02;;;;;;;;;;;8.50;72.10;;;;;;2597358;22;19919;-72
2020/12/26 01:07:03;;;;;;;;;;;8.50;73.90;;;;;;2596793;22;19926;-71
2020/12/26 01:08:05;;;;;;;;;;;8.50;71.90;;;;;;2597258;22;19964;-71
2020/12/26 01:09:07;;;;;;;;;;;8.50;73.00;;;;;;2596063;22;19919;-70
2020/12/26 01:10:08;;;;;;;;;;;8.50;72.40;;;;;;2595959;22;19919;-71
2020/12/26 01:11:11;;;;;;;;;;;8.60;73.50;;;;;;2595998;22;20333;-72
2020/12/26 01:12:12;;;;;;;;;;;8.70;73.10;;;;;;2595849;22;20353;-71
2020/12/26 01:13:13;;;;;;;;;;;8.50;71.90;;;;;;2596138;22;19919;-72
2020/12/26 01:14:15;;;;;;;;;;;8.60;73.60;;;;;;2596148;22;19919;-71
2020/12/26 01:15:16;;;;;;;;;;;8.70;71.80;;;;;;2595974;22;19919;-71
2020/12/26 01:16:18;;;;;;;;;;;8.60;71.20;;;;;;2596415;22;20252;-71
2020/12/26 01:17:19;;;;;;;;;;;8.60;73.10;;;;;;2596203;22;19919;-71
2020/12/26 01:18:32;;;;;;;;;;;8.60;71.50;;;;;;2582265;23;20280;-71
2020/12/26 01:19:34;;;;;;;;;;;8.60;72.20;;;;;;2585341;22;19920;-72
2020/12/26 01:20:36;;;;;;;;;;;8.60;71.00;;;;;;2596008;22;19926;-72
2020/12/26 01:21:37;;;;;;;;;;;8.50;72.30;;;;;;2582512;23;20291;-71
2020/12/26 01:22:38;;;;;;;;;;;8.50;70.90;;;;;;2582751;22;19920;-70
2020/12/26 01:23:41;;;;;;;;;;;8.40;71.00;;;;;;2595994;22;19942;-70
2020/12/26 01:24:42;;;;;;;;;;;8.30;70.90;;;;;;2595819;22;19926;-71
2020/12/26 01:25:44;;;;;;;;;;;8.20;71.50;;;;;;2595925;22;19926;-71
2020/12/26 01:26:45;;;;;;;;;;;8.30;73.60;;;;;;2595736;22;19923;-72
2020/12/26 01:27:47;;;;;;;;;;;8.40;73.90;;;;;;2596558;22;19926;-71
2020/12/26 01:28:48;;;;;;;;;;;8.40;72.90;;;;;;2596474;22;19920;-71
2020/12/26 01:29:50;;;;;;;;;;;8.40;73.20;;;;;;2597061;22;20241;-72
2020/12/26 01:30:51;;;;;;;;;;;8.40;71.70;;;;;;2598408;22;19988;-71
2020/12/26 01:31:52;;;;;;;;;;;8.40;71.60;;;;;;2598491;22;19919;-75
2020/12/26 01:32:54;;;;;;;;;;;8.40;71.30;;;;;;2596665;22;19919;-72
2020/12/26 01:33:55;;;;;;;;;;;8.40;72.30;;;;;;2595908;22;19930;-72
2020/12/26 01:34:58;;;;;;;;;;;8.40;73.10;;;;;;2595982;22;20071;-71
2020/12/26 01:35:59;;;;;;;;;;;8.50;73.80;;;;;;2596181;22;19926;-72
2020/12/26 01:37:02;;;;;;;;;;;8.50;72.60;;;;;;2595947;22;19923;-71
2020/12/26 01:38:03;;;;;;;;;;;8.50;72.40;;;;;;2595936;22;19920;-71
2020/12/26 01:39:05;;;;;;;;;;;8.50;70.90;;;;;;2595740;22;19919;-72
2020/12/26 01:40:10;;;;;;;;;;;8.50;72.30;;;;;;2595716;22;19924;-71
2020/12/26 01:41:14;;;;;;;;;;;8.50;72.20;;;;;;2595818;22;19990;-71
2020/12/26 01:42:15;;;;;;;;;;;8.50;71.90;;;;;;2595602;22;20333;-71
2020/12/26 01:43:17;;;;;;;;;;;8.40;72.00;;;;;;2595779;22;20071;-71
2020/12/26 01:44:19;;;;;;;;;;;8.50;72.30;;;;;;2595915;22;19919;-72
2020/12/26 01:45:20;;;;;;;;;;;8.60;72.90;;;;;;2595725;22;20201;-72
2020/12/26 01:46:22;;;;;;;;;;;8.60;72.70;;;;;;2595792;22;19919;-71
2020/12/26 01:47:24;;;;;;;;;;;8.60;72.00;;;;;;2595702;22;20194;-71
2020/12/26 01:48:25;;;;;;;;;;;8.50;70.50;;;;;;2582346;23;19931;-73
2020/12/26 01:49:27;;;;;;;;;;;8.30;71.10;;;;;;2582518;22;19919;-71
2020/12/26 01:50:30;;;;;;;;;;;8.30;71.80;;;;;;2595948;22;19926;-72
2020/12/26 01:51:31;;;;;;;;;;;8.30;72.40;;;;;;2582130;23;20261;-71
2020/12/26 01:52:33;;;;;;;;;;;8.40;73.90;;;;;;2582885;22;19975;-71
2020/12/26 01:53:34;;;;;;;;;;;8.50;74.60;;;;;;2596092;22;19919;-71
2020/12/26 01:54:36;;;;;;;;;;;8.50;72.60;;;;;;2582963;23;19919;-71
2020/12/26 01:55:37;;;;;;;;;;;8.50;72.70;;;;;;2582889;22;19919;-71
2020/12/26 01:56:39;;;;;;;;;;;8.60;72.40;;;;;;2596362;22;19974;-71
2020/12/26 01:57:49;;;;;;;;;;;8.50;70.90;;;;;;2596575;22;19927;-70
2020/12/26 01:58:50;;;;;;;;;;;8.30;70.90;;;;;;2582977;23;19927;-71
2020/12/26 01:59:51;;;;;;;;;;;8.30;71.30;;;;;;2583297;22;19923;-75
2020/12/26 02:00:53;;;;;;;;;;;8.30;73.50;;;;;;2596219;22;19920;-71
2020/12/26 02:01:57;;;;;;;;;;;8.40;73.60;;;;;;2596072;22;20340;-71
2020/12/26 02:02:58;;;;;;;;;;;8.40;73.10;;;;;;2596097;22;19927;-75
2020/12/26 02:04:00;;;;;;;;;;;8.50;72.60;;;;;;2595852;22;19923;-71
2020/12/26 02:05:01;;;;;;;;;;;8.50;71.40;;;;;;2595740;22;19920;-71
2020/12/26 02:06:04;;;;;;;;;;;8.30;71.70;;;;;;2595597;22;19920;-71
2020/12/26 02:07:06;;;;;;;;;;;8.30;72.10;;;;;;2595350;22;20306;-70
2020/12/26 02:08:08;;;;;;;;;;;8.30;72.50;;;;;;2595752;22;20023;-71
2020/12/26 02:09:10;;;;;;;;;;;8.40;74.40;;;;;;2595525;22;20367;-70
2020/12/26 02:10:12;;;;;;;;;;;8.50;74.40;;;;;;2595582;22;20248;-71
2020/12/26 02:11:14;;;;;;;;;;;8.40;72.80;;;;;;2582125;23;20349;-71
2020/12/26 02:12:15;;;;;;;;;;;8.50;74.50;;;;;;2582547;22;19946;-71
2020/12/26 02:13:16;;;;;;;;;;;8.50;73.50;;;;;;2595748;22;19926;-71
2020/12/26 02:14:18;;;;;;;;;;;8.50;72.30;;;;;;2595859;22;19919;-71
2020/12/26 02:15:19;;;;;;;;;;;8.40;71.80;;;;;;2595608;22;19919;-71
2020/12/26 02:16:21;;;;;;;;;;;8.40;72.40;;;;;;2595646;22;19927;-71
2020/12/26 02:17:25;;;;;;;;;;;8.40;72.00;;;;;;2595750;22;19919;-71
2020/12/26 02:18:26;;;;;;;;;;;8.40;73.90;;;;;;2595404;22;20367;-72
2020/12/26 02:19:28;;;;;;;;;;;8.50;72.70;;;;;;2595657;22;19919;-71
2020/12/26 02:20:29;;;;;;;;;;;8.50;72.30;;;;;;2595515;22;19942;-71
2020/12/26 02:21:32;;;;;;;;;;;8.40;71.40;;;;;;2582103;23;19927;-70
2020/12/26 02:22:33;;;;;;;;;;;8.40;71.80;;;;;;2582510;22;19919;-71
2020/12/26 02:23:37;;;;;;;;;;;8.30;71.30;;;;;;2582209;23;19927;-71
2020/12/26 02:24:39;;;;;;;;;;;8.30;71.40;;;;;;2582806;22;19920;-72
2020/12/26 02:25:41;;;;;;;;;;;8.30;73.40;;;;;;2595528;22;19919;-71
2020/12/26 02:26:42;;;;;;;;;;;8.20;71.90;;;;;;2581856;23;20372;-71
2020/12/26 02:27:43;;;;;;;;;;;8.10;72.80;;;;;;2582356;22;19919;-71
2020/12/26 02:28:45;;;;;;;;;;;8.20;72.80;;;;;;2595707;22;20344;-71
2020/12/26 02:29:46;;;;;;;;;;;8.20;73.80;;;;;;2595750;22;19965;-71
2020/12/26 02:30:48;;;;;;;;;;;8.20;72.40;;;;;;2595916;22;19958;-72
2020/12/26 02:31:49;;;;;;;;;;;8.10;72.40;;;;;;2595648;22;20333;-71
2020/12/26 02:32:51;;;;;;;;;;;8.20;72.80;;;;;;2595442;22;19945;-71
2020/12/26 02:33:52;;;;;;;;;;;8.10;71.80;;;;;;2595800;22;19919;-71
2020/12/26 02:34:54;;;;;;;;;;;8.10;73.00;;;;;;2595627;22;20372;-70
2020/12/26 02:35:55;;;;;;;;;;;8.10;72.90;;;;;;2595601;22;19923;-71
2020/12/26 02:36:57;;;;;;;;;;;8.20;73.10;;;;;;2595733;22;19973;-71
2020/12/26 02:37:58;;;;;;;;;;;8.20;73.60;;;;;;2595937;22;19919;-71
2020/12/26 02:38:59;;;;;;;;;;;8.20;73.50;;;;;;2595386;22;20367;-71
2020/12/26 02:40:02;;;;;;;;;;;8.20;72.50;;;;;;2595946;22;19919;-71
2020/12/26 02:41:04;;;;;;;;;;;8.20;72.50;;;;;;2595329;22;19926;-71
2020/12/26 02:42:06;;;;;;;;;;;8.20;72.70;;;;;;2595719;22;19923;-71
2020/12/26 02:43:12;;;;;;;;;;;8.20;74.20;;;;;;2595562;22;20333;-70
2020/12/26 02:44:13;;;;;;;;;;;8.20;72.50;;;;;;2595455;22;19926;-71
2020/12/26 02:45:14;;;;;;;;;;;8.20;74.00;;;;;;2595547;22;19927;-71
2020/12/26 02:46:16;;;;;;;;;;;8.20;72.40;;;;;;2595557;22;20282;-71
2020/12/26 02:47:17;;;;;;;;;;;8.20;72.10;;;;;;2595346;22;19919;-71
2020/12/26 02:48:19;;;;;;;;;;;8.10;72.80;;;;;;2595353;22;19919;-72
2020/12/26 02:49:27;;;;;;;;;;;8.20;73.50;;;;;;2595534;22;19926;-71
2020/12/26 02:50:29;;;;;;;;;;;8.20;74.30;;;;;;2595511;22;19919;-71
2020/12/26 02:51:32;;;;;;;;;;;8.30;73.50;;;;;;2595569;22;19943;-71
2020/12/26 02:52:34;;;;;;;;;;;8.30;72.30;;;;;;2595609;22;19919;-70
2020/12/26 02:53:35;;;;;;;;;;;8.30;72.60;;;;;;2595504;22;19946;-71
2020/12/26 02:54:36;;;;;;;;;;;8.30;73.00;;;;;;2595470;22;19926;-72
2020/12/26 02:55:39;;;;;;;;;;;8.30;73.50;;;;;;2595324;22;19930;-71
2020/12/26 02:56:40;;;;;;;;;;;8.40;73.50;;;;;;2595432;22;20252;-71
2020/12/26 02:57:42;;;;;;;;;;;8.40;72.70;;;;;;2595382;22;20419;-71
2020/12/26 02:58:43;;;;;;;;;;;8.40;72.00;;;;;;2595779;22;19930;-71
2020/12/26 02:59:45;;;;;;;;;;;8.40;73.30;;;;;;2582140;23;19919;-71
2020/12/26 03:00:49;;;;;;;;;;;8.50;73.70;;;;;;2582318;22;19924;-71
2020/12/26 03:01:50;;;;;;;;;;;8.40;72.80;;;;;;2595336;22;20408;-71
2020/12/26 03:02:52;;;;;;;;;;;8.30;70.70;;;;;;2595556;22;19942;-71
2020/12/26 03:03:53;;;;;;;;;;;8.30;71.60;;;;;;2595457;22;20272;-71
2020/12/26 03:04:54;;;;;;;;;;;8.20;71.00;;;;;;2595662;22;19926;-71
2020/12/26 03:05:56;;;;;;;;;;;8.00;71.80;;;;;;2595671;22;19923;-71
2020/12/26 03:06:57;;;;;;;;;;;8.00;72.40;;;;;;2595823;22;19927;-70
2020/12/26 03:07:58;;;;;;;;;;;8.00;72.30;;;;;;2595871;22;19919;-71
2020/12/26 03:09:00;;;;;;;;;;;8.00;73.70;;;;;;2595625;22;19930;-71
2020/12/26 03:10:02;;;;;;;;;;;8.10;75.00;;;;;;2595813;22;20241;-71
2020/12/26 03:11:04;;;;;;;;;;;8.10;72.70;;;;;;2596066;22;20029;-71
2020/12/26 03:12:06;;;;;;;;;;;8.00;72.20;;;;;;2598952;22;20109;-71
2020/12/26 03:13:07;;;;;;;;;;;8.00;72.00;;;;;;2598098;22;19919;-71
2020/12/26 03:14:09;;;;;;;;;;;7.90;72.30;;;;;;2597104;22;20340;-70
2020/12/26 03:15:11;;;;;;;;;;;7.90;72.20;;;;;;2596262;22;20174;-72
2020/12/26 03:16:12;;;;;;;;;;;7.80;72.10;;;;;;2595990;22;19919;-72
2020/12/26 03:17:14;;;;;;;;;;;7.90;74.80;;;;;;2596022;22;19919;-72
2020/12/26 03:18:15;;;;;;;;;;;8.00;73.40;;;;;;2596028;22;19931;-71
2020/12/26 03:19:16;;;;;;;;;;;8.10;73.70;;;;;;2595961;22;19919;-72
2020/12/26 03:20:18;;;;;;;;;;;8.20;74.80;;;;;;2582202;23;19920;-71
2020/12/26 03:21:19;;;;;;;;;;;8.20;73.20;;;;;;2582103;22;19920;-71
2020/12/26 03:22:21;;;;;;;;;;;8.20;73.70;;;;;;2595655;22;19919;-71
2020/12/26 03:23:22;;;;;;;;;;;8.10;72.10;;;;;;2595438;22;19919;-71
2020/12/26 03:24:24;;;;;;;;;;;8.20;73.30;;;;;;2595564;22;19943;-71
2020/12/26 03:25:25;;;;;;;;;;;8.20;72.10;;;;;;2595431;22;19931;-71
2020/12/26 03:26:28;;;;;;;;;;;8.10;71.70;;;;;;2595122;22;19919;-70
2020/12/26 03:27:29;;;;;;;;;;;8.10;74.70;;;;;;2595450;22;19926;-71
2020/12/26 03:28:30;;;;;;;;;;;8.20;73.20;;;;;;2595505;22;19934;-71
2020/12/26 03:29:32;;;;;;;;;;;8.20;73.20;;;;;;2595474;22;19919;-70
2020/12/26 03:30:33;;;;;;;;;;;8.10;71.90;;;;;;2595409;22;19919;-71
2020/12/26 03:31:35;;;;;;;;;;;8.00;72.40;;;;;;2596129;22;19966;-71
2020/12/26 03:32:36;;;;;;;;;;;8.10;72.00;;;;;;2596232;22;19951;-71
2020/12/26 03:33:38;;;;;;;;;;;8.00;72.00;;;;;;2596611;22;19926;-71
2020/12/26 03:34:39;;;;;;;;;;;8.00;73.70;;;;;;2596322;22;19927;-71
2020/12/26 03:35:40;;;;;;;;;;;8.10;74.10;;;;;;2596366;22;19934;-71
2020/12/26 03:36:42;;;;;;;;;;;8.10;73.00;;;;;;2596421;22;20277;-71
2020/12/26 03:37:43;;;;;;;;;;;8.10;73.30;;;;;;2596726;22;19926;-71
2020/12/26 03:38:45;;;;;;;;;;;8.00;72.50;;;;;;2596887;22;20238;-71
2020/12/26 03:39:47;;;;;;;;;;;8.00;72.60;;;;;;2597892;22;19927;-75
2020/12/26 03:40:48;;;;;;;;;;;8.00;72.10;;;;;;2585034;23;19927;-72
2020/12/26 03:41:51;;;;;;;;;;;8.00;73.50;;;;;;2586314;22;19927;-70
2020/12/26 03:42:52;;;;;;;;;;;8.10;74.80;;;;;;2597958;22;19919;-71
2020/12/26 03:43:54;;;;;;;;;;;8.10;74.50;;;;;;2597691;22;19985;-72
2020/12/26 03:44:55;;;;;;;;;;;8.10;73.20;;;;;;2597001;22;20352;-72
2020/12/26 03:45:57;;;;;;;;;;;8.20;74.10;;;;;;2597242;22;19923;-71
2020/12/26 03:46:58;;;;;;;;;;;8.20;73.90;;;;;;2596896;22;19920;-71
2020/12/26 03:47:59;;;;;;;;;;;8.20;73.20;;;;;;2596782;22;19923;-71
2020/12/26 03:49:01;;;;;;;;;;;8.20;72.40;;;;;;2596890;22;20281;-70
2020/12/26 03:50:07;;;;;;;;;;;8.20;72.90;;;;;;2597662;22;19995;-70
2020/12/26 03:51:09;;;;;;;;;;;8.20;73.40;;;;;;2596274;22;20244;-71
2020/12/26 03:52:11;;;;;;;;;;;8.20;72.70;;;;;;2596562;22;19919;-71
2020/12/26 03:53:12;;;;;;;;;;;8.20;72.70;;;;;;2596586;22;19919;-71
2020/12/26 03:54:13;;;;;;;;;;;8.20;72.20;;;;;;2596392;22;20291;-71
2020/12/26 03:55:16;;;;;;;;;;;8.10;71.70;;;;;;2596258;22;19924;-70
2020/12/26 03:56:18;;;;;;;;;;;8.10;72.60;;;;;;2596261;22;20268;-71
2020/12/26 03:57:20;;;;;;;;;;;8.00;72.00;;;;;;2596800;22;19926;-70
2020/12/26 03:58:21;;;;;;;;;;;8.00;71.80;;;;;;2596269;22;19919;-71
2020/12/26 03:59:24;;;;;;;;;;;7.90;72.10;;;;;;2596406;22;20178;-72
2020/12/26 04:00:25;;;;;;;;;;;7.90;73.80;;;;;;2596358;22;19990;-71
2020/12/26 04:01:27;;;;;;;;;;;8.10;75.60;;;;;;2596632;22;20344;-71
2020/12/26 04:02:28;;;;;;;;;;;8.10;74.30;;;;;;2596430;22;19919;-71
2020/12/26 04:03:31;;;;;;;;;;;8.00;72.10;;;;;;2595992;22;20222;-71
2020/12/26 04:04:33;;;;;;;;;;;8.00;72.20;;;;;;2596137;22;19927;-72
2020/12/26 04:05:34;;;;;;;;;;;8.00;74.00;;;;;;2596249;22;19919;-72
2020/12/26 04:06:36;;;;;;;;;;;8.10;74.10;;;;;;2596118;22;19923;-71
2020/12/26 04:07:37;;;;;;;;;;;8.10;73.90;;;;;;2596147;22;20336;-71
2020/12/26 04:08:39;;;;;;;;;;;8.10;72.30;;;;;;2582859;23;19925;-70
2020/12/26 04:09:41;;;;;;;;;;;8.20;74.50;;;;;;2583294;22;19991;-74
2020/12/26 04:10:42;;;;;;;;;;;8.30;74.80;;;;;;2596358;22;19923;-71
2020/12/26 04:11:46;;;;;;;;;;;8.30;73.30;;;;;;2596106;22;19919;-71
2020/12/26 04:12:48;;;;;;;;;;;8.30;73.50;;;;;;2596113;22;19926;-71
2020/12/26 04:13:50;;;;;;;;;;;8.40;73.60;;;;;;2596218;22;19927;-71
2020/12/26 04:14:51;;;;;;;;;;;8.30;72.00;;;;;;2596198;22;19930;-71
2020/12/26 04:15:53;;;;;;;;;;;8.30;72.20;;;;;;2596111;22;19926;-71
2020/12/26 04:16:55;;;;;;;;;;;8.40;74.20;;;;;;2595925;22;20265;-71
2020/12/26 04:17:56;;;;;;;;;;;8.50;73.90;;;;;;2595951;22;19919;-71
2020/12/26 04:18:58;;;;;;;;;;;8.40;72.40;;;;;;2596272;22;19919;-71
2020/12/26 04:19:59;;;;;;;;;;;8.50;72.00;;;;;;2596188;22;19920;-71
2020/12/26 04:21:01;;;;;;;;;;;8.50;72.40;;;;;;2596351;22;19923;-71
2020/12/26 04:22:02;;;;;;;;;;;8.50;71.00;;;;;;2596507;22;19926;-71
2020/12/26 04:23:04;;;;;;;;;;;8.40;71.80;;;;;;2596150;22;19923;-74
2020/12/26 04:24:05;;;;;;;;;;;8.40;71.80;;;;;;2596225;22;19919;-71
2020/12/26 04:25:07;;;;;;;;;;;8.40;72.50;;;;;;2596138;22;19919;-70
2020/12/26 04:26:09;;;;;;;;;;;8.30;71.90;;;;;;2596404;22;20052;-71
2020/12/26 04:27:11;;;;;;;;;;;8.40;73.40;;;;;;2596298;22;19955;-71
2020/12/26 04:28:13;;;;;;;;;;;8.40;73.20;;;;;;2596315;22;19919;-71
2020/12/26 04:29:15;;;;;;;;;;;8.40;71.50;;;;;;2596187;22;19919;-71
2020/12/26 04:30:16;;;;;;;;;;;8.40;72.10;;;;;;2595988;22;19970;-71
2020/12/26 04:31:18;;;;;;;;;;;8.30;71.50;;;;;;2596384;22;19919;-71
2020/12/26 04:32:19;;;;;;;;;;;8.30;72.00;;;;;;2596105;22;19930;-71
2020/12/26 04:33:20;;;;;;;;;;;8.20;71.40;;;;;;2596183;22;19919;-71
2020/12/26 04:34:23;;;;;;;;;;;8.20;72.10;;;;;;2596855;22;19919;-71
2020/12/26 04:35:24;;;;;;;;;;;8.30;75.00;;;;;;2596676;22;19926;-71
2020/12/26 04:36:26;;;;;;;;;;;8.30;72.30;;;;;;2596780;22;19919;-71
2020/12/26 04:37:27;;;;;;;;;;;8.20;71.80;;;;;;2596364;22;20377;-71
2020/12/26 04:38:28;;;;;;;;;;;8.30;73.40;;;;;;2596256;22;19919;-71
2020/12/26 04:39:30;;;;;;;;;;;8.30;73.10;;;;;;2596453;22;19919;-71
2020/12/26 04:40:31;;;;;;;;;;;8.30;71.70;;;;;;2596305;22;19919;-71
2020/12/26 04:41:33;;;;;;;;;;;8.20;71.80;;;;;;2596313;22;19926;-71
2020/12/26 04:42:35;;;;;;;;;;;8.30;72.20;;;;;;2595872;22;19926;-71
2020/12/26 04:43:37;;;;;;;;;;;8.20;73.10;;;;;;2596302;22;19919;-71
2020/12/26 04:44:38;;;;;;;;;;;8.20;71.50;;;;;;2596086;22;19943;-71
2020/12/26 04:45:40;;;;;;;;;;;8.30;73.80;;;;;;2596289;22;20067;-71
2020/12/26 04:46:42;;;;;;;;;;;8.30;71.30;;;;;;2596479;22;19926;-71
2020/12/26 04:47:48;;;;;;;;;;;8.30;71.70;;;;;;2596235;22;20363;-71
2020/12/26 04:48:57;;;;;;;;;;;8.20;70.90;;;;;;2596260;22;20268;-71
2020/12/26 04:49:59;;;;;;;;;;;8.20;71.50;;;;;;2596216;22;19919;-74
2020/12/26 04:51:02;;;;;;;;;;;8.20;72.10;;;;;;2596133;22;20265;-73
2020/12/26 04:52:07;;;;;;;;;;;8.20;72.20;;;;;;2595940;22;19919;-71
2020/12/26 04:53:11;;;;;;;;;;;8.20;72.60;;;;;;2598106;22;19920;-72
2020/12/26 04:54:19;;;;;;;;;;;8.20;71.40;;;;;;2598804;22;19926;-71
2020/12/26 04:55:26;;;;;;;;;;;8.20;71.10;;;;;;2597179;22;20206;-72
2020/12/26 04:56:30;;;;;;;;;;;8.10;71.40;;;;;;2596078;22;20264;-71
2020/12/26 04:57:32;;;;;;;;;;;8.00;71.40;;;;;;2595942;22;19920;-71
2020/12/26 04:58:34;;;;;;;;;;;8.00;71.40;;;;;;2596008;22;19994;-71
2020/12/26 04:59:37;;;;;;;;;;;8.00;72.60;;;;;;2582650;23;20018;-71
2020/12/26 05:00:38;;;;;;;;;;;8.00;73.00;;;;;;2582856;22;19927;-71
2020/12/26 05:01:41;;;;;;;;;;;8.00;72.90;;;;;;2596039;22;19919;-71
2020/12/26 05:02:42;;;;;;;;;;;7.90;73.00;;;;;;2596040;22;19926;-70
2020/12/26 05:03:44;;;;;;;;;;;8.00;73.50;;;;;;2596090;22;19919;-71
2020/12/26 05:04:46;;;;;;;;;;;8.00;71.90;;;;;;2595892;22;19930;-72
2020/12/26 05:05:47;;;;;;;;;;;7.90;72.40;;;;;;2596214;22;19920;-71
2020/12/26 05:06:50;;;;;;;;;;;7.90;73.10;;;;;;2595771;22;19927;-72
2020/12/26 05:07:51;;;;;;;;;;;8.00;73.80;;;;;;2595943;22;19919;-71
2020/12/26 05:08:53;;;;;;;;;;;8.00;74.70;;;;;;2596118;22;20252;-71
2020/12/26 05:09:54;;;;;;;;;;;8.10;73.20;;;;;;2596097;22;19926;-70
2020/12/26 05:10:56;;;;;;;;;;;8.10;74.40;;;;;;2595712;22;19923;-71
2020/12/26 05:11:58;;;;;;;;;;;8.10;71.80;;;;;;2595598;22;19926;-71
2020/12/26 05:13:00;;;;;;;;;;;8.00;71.80;;;;;;2595821;22;19923;-71
2020/12/26 05:14:04;;;;;;;;;;;8.00;72.00;;;;;;2596003;22;19919;-71
2020/12/26 05:15:07;;;;;;;;;;;8.00;71.70;;;;;;2595898;22;20245;-71
2020/12/26 05:16:08;;;;;;;;;;;8.00;72.80;;;;;;2595897;22;19919;-71
2020/12/26 05:17:11;;;;;;;;;;;8.10;73.10;;;;;;2595707;22;19919;-71
2020/12/26 05:18:12;;;;;;;;;;;8.10;72.40;;;;;;2595968;22;20341;-71
2020/12/26 05:19:14;;;;;;;;;;;8.20;73.60;;;;;;2595975;22;19920;-71
2020/12/26 05:20:15;;;;;;;;;;;8.10;72.00;;;;;;2595770;22;19931;-71
2020/12/26 05:21:23;;;;;;;;;;;8.10;70.90;;;;;;2595945;22;19926;-71
2020/12/26 05:22:25;;;;;;;;;;;8.10;72.00;;;;;;2595988;22;19919;-71
2020/12/26 05:23:26;;;;;;;;;;;8.00;71.60;;;;;;2595841;22;19926;-71
2020/12/26 05:24:27;;;;;;;;;;;8.00;73.30;;;;;;2595888;22;20209;-71
2020/12/26 05:25:29;;;;;;;;;;;8.10;74.70;;;;;;2596001;22;19919;-70
2020/12/26 05:26:37;;;;;;;;;;;8.20;75.00;;;;;;2595925;22;19920;-71
2020/12/26 05:27:38;;;;;;;;;;;8.20;72.70;;;;;;2595669;22;19919;-72
2020/12/26 05:28:40;;;;;;;;;;;8.20;73.00;;;;;;2595709;22;19926;-71
2020/12/26 05:29:42;;;;;;;;;;;8.20;71.30;;;;;;2595637;22;19973;-72
2020/12/26 05:30:45;;;;;;;;;;;8.10;71.30;;;;;;2595715;22;19926;-71
2020/12/26 05:31:49;;;;;;;;;;;8.10;72.60;;;;;;2582347;23;19919;-71
2020/12/26 05:32:53;;;;;;;;;;;8.20;71.50;;;;;;2583202;22;19920;-71
2020/12/26 05:34:07;;;;;;;;;;;8.20;72.80;;;;;;2595795;22;19919;-71
2020/12/26 05:35:08;;;;;;;;;;;8.20;74.40;;;;;;2596014;22;19919;-71
2020/12/26 05:36:10;;;;;;;;;;;8.30;73.70;;;;;;2595674;22;20354;-71
2020/12/26 05:37:13;;;;;;;;;;;8.40;72.10;;;;;;2595843;22;20082;-71
2020/12/26 05:38:16;;;;;;;;;;;8.30;73.10;;;;;;2595827;22;20197;-71
2020/12/26 05:39:17;;;;;;;;;;;8.40;73.10;;;;;;2582274;23;19946;-71
2020/12/26 05:40:21;;;;;;;;;;;8.40;71.70;;;;;;2582471;22;20356;-71
2020/12/26 05:41:23;;;;;;;;;;;8.40;71.20;;;;;;2595815;22;19977;-71
2020/12/26 05:42:26;;;;;;;;;;;8.40;72.10;;;;;;2595600;22;19919;-71
2020/12/26 05:43:28;;;;;;;;;;;8.30;71.40;;;;;;2595848;22;20252;-71
2020/12/26 05:44:30;;;;;;;;;;;8.40;72.10;;;;;;2595886;22;19926;-71
2020/12/26 05:45:37;;;;;;;;;;;8.40;72.30;;;;;;2596003;22;19926;-70
2020/12/26 05:46:56;;;;;;;;;;;8.40;73.40;;;;;;2595766;22;20336;-71
2020/12/26 05:48:05;;;;;;;;;;;8.50;72.60;;;;;;2595664;22;20252;-71
2020/12/26 05:49:20;;;;;;;;;;;8.50;73.20;;;;;;2595833;22;19927;-72
2020/12/26 05:50:25;;;;;;;;;;;8.50;72.70;;;;;;2596062;22;19926;-71
2020/12/26 05:51:29;;;;;;;;;;;8.50;71.90;;;;;;2582453;23;19950;-71
2020/12/26 05:52:31;;;;;;;;;;;8.50;72.30;;;;;;2570560;23;19920;-71
2020/12/26 05:53:34;;;;;;;;;;;8.60;72.10;;;;;;2582476;23;19919;-71
2020/12/26 05:54:37;;;;;;;;;;;8.70;73.30;;;;;;2570194;23;19931;-71
2020/12/26 05:55:39;;;;;;;;;;;8.70;73.40;;;;;;2582675;22;20241;-71
2020/12/26 05:56:40;;;;;;;;;;;8.80;72.50;;;;;;2596170;22;19946;-71
2020/12/26 05:57:42;;;;;;;;;;;8.80;72.00;;;;;;2583387;23;19920;-73
2020/12/26 05:58:43;;;;;;;;;;;8.80;72.10;;;;;;2571867;23;20025;-79
2020/12/26 05:59:46;;;;;;;;;;;8.80;72.40;;;;;;2583820;22;19919;-70
2020/12/26 06:00:47;;;;;;;;;;;8.90;73.20;;;;;;2595750;22;19919;-71
2020/12/26 06:01:49;;;;;;;;;;;9.00;71.00;;;;;;2595512;22;20244;-71
2020/12/26 06:02:52;;;;;;;;;;;8.90;71.60;;;;;;2595860;22;19919;-71
2020/12/26 06:03:54;;;;;;;;;;;8.90;69.40;;;;;;2595729;22;19926;-70
2020/12/26 06:04:56;;;;;;;;;;;8.80;69.00;;;;;;2595620;22;20337;-70
2020/12/26 06:05:58;;;;;;;;;;;8.80;70.50;;;;;;2595567;22;19919;-71
2020/12/26 06:07:00;;;;;;;;;;;8.70;70.00;;;;;;2595665;22;19927;-71
2020/12/26 06:08:02;;;;;;;;;;;8.70;71.70;;;;;;2595775;22;19923;-70